Cypress, Florida
Current Conditions -  °F | °C
As of 12:53 AM on Friday 31 Oct 2014 (Local Time) from KMAI Reporting Station
Clear Clear  
Wind Chill: 49°   Ceiling: Unl
Heat Index: 49°   Visibility: 10mi
Dew Point: 46°   Wind: 0mph
Humidity: 90%   Direction: NA
Pressure: 29.97"   Gusts: NA
Location:  30.71°N, 85.07°W
Report Text: KMAI 310553Z AUTO 00000KT 10SM CLR 09/08 A2997 RMK AO2 SLP149 60000 T00940078 10167 20089 402390089 56003 $
Loading
Personal Weather Stations






























Interactive Weather Map
Tropical Storm Tracking
New forecast layout! Learn more

10-Day Weather Forecast

Advertisements
Track Severe Weather on mobile